Time;durP1;ratioP1;P1;durP2;ratioP2;P2;SDS_P1;SDS_P2;PMS_P1;PMS_P2;Temp;Humidity;BMP_temperature;BMP_pressure;BME280_temperature;BME280_humidity;BME280_pressure;Samples;Min_cycle;Max_cycle;Signal;HPM_P1;HPM_P2
2021/03/23 00:00:53;;;;;;;17.92;9.68;;;1.90;99.90;;;;;;5035835;28;20063;-68
2021/03/23 00:03:36;;;;;;;15.73;8.90;;;1.90;99.90;;;;;;5040785;28;20418;-69
2021/03/23 00:06:03;;;;;;;14.80;8.80;;;1.90;99.90;;;;;;5032800;28;20057;-69
2021/03/23 00:08:34;;;;;;;14.98;8.88;;;1.80;99.90;;;;;;5039962;28;20439;-69
2021/03/23 00:11:09;;;;;;;13.80;9.00;;;1.80;99.90;;;;;;5035703;28;20045;-69
2021/03/23 00:13:43;;;;;;;15.15;8.85;;;1.80;99.90;;;;;;5045431;28;20236;-70
2021/03/23 00:16:11;;;;;;;18.17;8.30;;;1.80;99.90;;;;;;5034342;28;20049;-69
2021/03/23 00:18:40;;;;;;;21.63;12.55;;;1.70;99.90;;;;;;5049767;28;20053;-69
2021/03/23 00:21:08;;;;;;;18.38;9.95;;;1.70;99.90;;;;;;5042733;28;20167;-69
2021/03/23 00:23:34;;;;;;;13.77;8.20;;;1.70;99.90;;;;;;5047761;28;20053;-69
2021/03/23 00:26:01;;;;;;;15.27;9.23;;;1.70;99.90;;;;;;5052634;28;20495;-69
2021/03/23 00:28:27;;;;;;;17.38;8.43;;;1.70;99.90;;;;;;5050050;28;20049;-69
2021/03/23 00:30:54;;;;;;;17.27;8.05;;;1.70;99.90;;;;;;5052144;28;20475;-69
2021/03/23 00:33:22;;;;;;;16.67;8.48;;;1.70;99.90;;;;;;5052546;28;20048;-69
2021/03/23 00:35:53;;;;;;;13.30;8.02;;;1.70;99.90;;;;;;5032282;28;20122;-69
2021/03/23 00:38:20;;;;;;;18.80;8.00;;;1.70;99.90;;;;;;5045232;28;20045;-69
2021/03/23 00:40:46;;;;;;;16.90;8.00;;;1.80;99.90;;;;;;5040248;28;20056;-69
2021/03/23 00:43:13;;;;;;;15.27;7.82;;;1.80;99.90;;;;;;5032258;28;20060;-69
2021/03/23 00:45:42;;;;;;;13.27;8.45;;;1.80;99.90;;;;;;5039239;28;20419;-69
2021/03/23 00:48:11;;;;;;;12.38;8.00;;;1.80;99.90;;;;;;5034074;28;20049;-69
2021/03/23 00:50:38;;;;;;;16.67;8.23;;;1.90;99.90;;;;;;5045057;28;20463;-69
2021/03/23 00:53:05;;;;;;;13.18;7.90;;;1.90;99.90;;;;;;5031073;28;20049;-69
2021/03/23 00:55:32;;;;;;;12.10;7.55;;;1.90;99.90;;;;;;5038353;28;20050;-69
2021/03/23 00:57:58;;;;;;;13.60;8.05;;;2.00;99.90;;;;;;5039133;28;20045;-68
2021/03/23 01:00:26;;;;;;;13.73;7.68;;;2.00;99.90;;;;;;5040144;28;20446;-69
2021/03/23 01:02:53;;;;;;;14.55;7.07;;;2.00;99.90;;;;;;5048842;28;20540;-69
2021/03/23 01:05:22;;;;;;;13.00;7.68;;;2.10;99.90;;;;;;5051653;28;20052;-70
2021/03/23 01:07:48;;;;;;;12.38;7.55;;;2.10;99.90;;;;;;5048574;28;20049;-69
2021/03/23 01:10:17;;;;;;;12.40;7.38;;;2.20;99.90;;;;;;5051070;28;20041;-69
2021/03/23 01:12:44;;;;;;;16.40;7.50;;;2.20;99.90;;;;;;5050362;28;20136;-69
2021/03/23 01:15:15;;;;;;;13.65;8.27;;;2.30;99.90;;;;;;5049654;28;20045;-69
2021/03/23 01:17:41;;;;;;;19.65;8.02;;;2.40;99.90;;;;;;5051057;28;20059;-69
2021/03/23 01:20:10;;;;;;;14.88;7.50;;;2.40;99.90;;;;;;5051925;28;20483;-69
2021/03/23 01:22:37;;;;;;;11.43;7.57;;;2.40;99.90;;;;;;5067159;28;20164;-69
2021/03/23 01:25:05;;;;;;;14.95;7.22;;;2.50;99.90;;;;;;5045046;28;20053;-69
2021/03/23 01:27:32;;;;;;;11.02;7.60;;;2.50;99.90;;;;;;5050081;28;20525;-69
2021/03/23 01:29:58;;;;;;;15.23;8.18;;;2.50;99.90;;;;;;5043184;28;20045;-69
2021/03/23 01:32:25;;;;;;;15.73;7.72;;;2.60;99.90;;;;;;5044689;28;20049;-69
2021/03/23 01:34:52;;;;;;;13.95;7.55;;;2.60;99.90;;;;;;5031792;28;20053;-69
2021/03/23 01:37:19;;;;;;;16.98;7.32;;;2.70;99.90;;;;;;5041136;28;20055;-69
2021/03/23 01:39:45;;;;;;;13.40;7.38;;;2.70;99.90;;;;;;5045512;28;20483;-69
2021/03/23 01:42:14;;;;;;;12.02;7.80;;;2.80;99.90;;;;;;5046569;28;20414;-68
2021/03/23 01:44:43;;;;;;;16.63;8.30;;;2.80;99.90;;;;;;5044391;28;20634;-68
2021/03/23 01:47:10;;;;;;;12.85;7.85;;;2.80;99.90;;;;;;5044144;28;20415;-68
2021/03/23 01:49:40;;;;;;;15.52;6.95;;;2.80;99.90;;;;;;5045263;28;20049;-69
2021/03/23 01:52:14;;;;;;;12.18;7.43;;;2.90;99.90;;;;;;5030849;28;20127;-69
2021/03/23 01:54:48;;;;;;;13.38;7.55;;;2.90;99.90;;;;;;5048314;28;20060;-69
2021/03/23 01:57:15;;;;;;;13.65;7.88;;;3.00;99.90;;;;;;5049850;28;20045;-68
2021/03/23 01:59:46;;;;;;;13.93;7.50;;;3.00;99.90;;;;;;5048248;28;20128;-69
2021/03/23 02:02:13;;;;;;;11.57;7.28;;;3.00;99.90;;;;;;5045857;28;20403;-69
2021/03/23 02:04:40;;;;;;;14.63;7.80;;;3.00;99.90;;;;;;5048517;28;20396;-68
2021/03/23 02:07:07;;;;;;;10.60;7.40;;;3.00;99.90;;;;;;5045224;28;20045;-69
2021/03/23 02:09:35;;;;;;;11.95;7.20;;;3.10;99.90;;;;;;5041063;28;20427;-71
2021/03/23 02:12:09;;;;;;;11.63;7.10;;;3.10;99.90;;;;;;5048740;28;20446;-70
2021/03/23 02:14:45;;;;;;;11.63;7.15;;;3.10;99.90;;;;;;5048658;28;20053;-70
2021/03/23 02:17:27;;;;;;;12.55;7.47;;;3.10;99.90;;;;;;5048331;28;20044;-70
2021/03/23 02:20:01;;;;;;;11.23;7.05;;;3.20;99.90;;;;;;5049989;28;20044;-70
2021/03/23 02:23:04;;;;;;;13.93;7.55;;;3.20;99.90;;;;;;5041539;28;20045;-70
2021/03/23 02:25:30;;;;;;;13.82;7.82;;;3.30;99.90;;;;;;5029779;28;20166;-70
2021/03/23 02:27:57;;;;;;;11.60;7.32;;;3.30;99.90;;;;;;5036222;28;20050;-70
2021/03/23 02:30:37;;;;;;;10.30;7.30;;;3.30;99.90;;;;;;5037558;28;20045;-70
2021/03/23 02:33:04;;;;;;;15.55;7.22;;;3.30;99.90;;;;;;5045185;28;20056;-70
2021/03/23 02:35:32;;;;;;;14.85;7.30;;;3.40;99.90;;;;;;5029620;28;20511;-70
2021/03/23 02:38:00;;;;;;;13.55;6.97;;;3.40;99.90;;;;;;5041308;28;20067;-69
2021/03/23 02:40:28;;;;;;;12.90;7.57;;;3.40;99.90;;;;;;5049771;28;20057;-68
2021/03/23 02:42:55;;;;;;;15.32;7.78;;;3.40;99.90;;;;;;5042101;28;20734;-69
2021/03/23 02:45:22;;;;;;;11.30;7.18;;;3.40;99.90;;;;;;5047877;28;20049;-70
2021/03/23 02:47:48;;;;;;;13.15;7.32;;;3.40;99.90;;;;;;5048251;28;20060;-70
2021/03/23 02:50:16;;;;;;;14.18;7.40;;;3.40;99.90;;;;;;5043710;28;20112;-70
2021/03/23 02:52:42;;;;;;;13.20;7.57;;;3.40;99.90;;;;;;5048931;28;20059;-69
2021/03/23 02:55:10;;;;;;;9.20;7.05;;;3.40;99.90;;;;;;5050297;28;20037;-69
2021/03/23 02:57:36;;;;;;;13.35;7.82;;;3.40;99.90;;;;;;5049411;28;20053;-69
2021/03/23 03:00:08;;;;;;;10.75;8.10;;;3.40;99.90;;;;;;5046705;28;20457;-68
2021/03/23 03:02:34;;;;;;;11.30;6.78;;;3.50;99.90;;;;;;5030711;28;20395;-69
2021/03/23 03:05:01;;;;;;;10.68;7.25;;;3.50;99.90;;;;;;5045507;28;20052;-69
2021/03/23 03:07:28;;;;;;;11.45;7.05;;;3.50;99.90;;;;;;5048683;28;20056;-69
2021/03/23 03:09:54;;;;;;;13.18;7.32;;;3.50;99.90;;;;;;5049150;28;20049;-70
2021/03/23 03:12:20;;;;;;;12.13;7.15;;;3.50;99.90;;;;;;5049257;28;20052;-70
2021/03/23 03:14:47;;;;;;;11.35;6.88;;;3.50;99.90;;;;;;5048784;28;20044;-69
2021/03/23 03:17:14;;;;;;;12.82;7.40;;;3.50;99.90;;;;;;5051498;28;20051;-69
2021/03/23 03:19:40;;;;;;;12.88;7.70;;;3.50;99.90;;;;;;5053307;28;20136;-69
2021/03/23 03:22:07;;;;;;;13.15;8.13;;;3.40;99.90;;;;;;5053630;28;20041;-69
2021/03/23 03:24:33;;;;;;;13.60;7.60;;;3.50;99.90;;;;;;5053254;28;20473;-70
2021/03/23 03:27:00;;;;;;;13.48;7.55;;;3.50;99.90;;;;;;5052599;28;20045;-70
2021/03/23 03:29:26;;;;;;;13.10;7.55;;;3.50;99.90;;;;;;5052533;28;20067;-70
2021/03/23 03:31:53;;;;;;;13.38;7.80;;;3.50;99.90;;;;;;5051375;28;20048;-69
2021/03/23 03:34:21;;;;;;;11.07;7.05;;;3.50;99.90;;;;;;5051203;28;20049;-70
2021/03/23 03:36:47;;;;;;;12.55;7.68;;;3.50;99.90;;;;;;5053057;28;20506;-69
2021/03/23 03:39:14;;;;;;;16.52;8.65;;;3.50;99.90;;;;;;5052964;28;20048;-69
2021/03/23 03:41:41;;;;;;;13.48;8.23;;;3.50;99.90;;;;;;5053746;28;20406;-69
2021/03/23 03:44:08;;;;;;;16.20;8.50;;;3.60;99.90;;;;;;5052731;28;20051;-70
2021/03/23 03:46:35;;;;;;;13.68;8.75;;;3.60;99.90;;;;;;5051884;28;20056;-69
2021/03/23 03:49:01;;;;;;;13.32;7.88;;;3.60;99.90;;;;;;5052113;28;20053;-69
2021/03/23 03:51:28;;;;;;;16.35;8.35;;;3.50;99.90;;;;;;5049504;28;20521;-69
2021/03/23 03:53:55;;;;;;;11.80;7.75;;;3.50;99.90;;;;;;5041733;28;20045;-68
2021/03/23 03:56:21;;;;;;;12.85;8.20;;;3.50;99.90;;;;;;5052420;28;20041;-69
2021/03/23 03:58:48;;;;;;;11.27;7.60;;;3.50;99.90;;;;;;5045132;28;20049;-69
2021/03/23 04:01:14;;;;;;;13.50;8.13;;;3.60;99.90;;;;;;5049310;28;20466;-69
2021/03/23 04:03:42;;;;;;;13.82;8.32;;;3.60;99.90;;;;;;5051694;28;20048;-69
2021/03/23 04:06:08;;;;;;;11.32;7.65;;;3.60;99.90;;;;;;5052806;28;20065;-69
2021/03/23 04:08:38;;;;;;;10.75;7.63;;;3.60;99.90;;;;;;5052109;28;20053;-69
2021/03/23 04:11:06;;;;;;;13.10;7.60;;;3.60;99.90;;;;;;5052844;28;20116;-69
2021/03/23 04:13:33;;;;;;;13.20;8.35;;;3.60;99.90;;;;;;5048824;28;20041;-69
2021/03/23 04:16:00;;;;;;;13.23;8.35;;;3.60;99.90;;;;;;5049165;28;20049;-69
2021/03/23 04:18:27;;;;;;;15.30;8.93;;;3.60;99.90;;;;;;5051568;28;20047;-69
2021/03/23 04:20:57;;;;;;;18.30;9.98;;;3.60;99.90;;;;;;5052314;28;20057;-69
2021/03/23 04:23:33;;;;;;;14.77;8.73;;;3.50;99.90;;;;;;5046725;28;20045;-69
2021/03/23 04:26:01;;;;;;;16.70;8.98;;;3.50;99.90;;;;;;5052100;28;20051;-69
2021/03/23 04:28:27;;;;;;;13.75;8.88;;;3.50;99.90;;;;;;5050804;28;20045;-69
2021/03/23 04:30:54;;;;;;;18.08;9.35;;;3.50;99.90;;;;;;5051620;28;20045;-69
2021/03/23 04:33:24;;;;;;;14.48;8.60;;;3.50;99.90;;;;;;5043615;28;20041;-70
2021/03/23 04:36:01;;;;;;;18.75;9.43;;;3.50;99.90;;;;;;5046340;28;20488;-69
2021/03/23 04:38:33;;;;;;;13.30;8.82;;;3.60;99.90;;;;;;5051340;28;20045;-70
2021/03/23 04:41:05;;;;;;;12.70;8.45;;;3.50;99.90;;;;;;5048331;28;20056;-69
2021/03/23 04:43:37;;;;;;;15.38;9.40;;;3.50;99.90;;;;;;5038418;28;21266;-70
2021/03/23 04:46:04;;;;;;;14.70;8.70;;;3.50;99.90;;;;;;5041240;28;20060;-69
2021/03/23 04:48:32;;;;;;;14.23;9.10;;;3.50;99.90;;;;;;5051125;28;20048;-70
2021/03/23 04:50:59;;;;;;;14.07;8.95;;;3.50;99.90;;;;;;5034881;28;20049;-70
2021/03/23 04:53:28;;;;;;;13.48;7.85;;;3.50;99.90;;;;;;5043626;28;20442;-68
2021/03/23 04:55:56;;;;;;;13.60;8.68;;;3.50;99.90;;;;;;5050581;28;20359;-69
2021/03/23 04:58:24;;;;;;;13.85;8.80;;;3.50;99.90;;;;;;5050344;28;20049;-69
2021/03/23 05:00:51;;;;;;;13.50;8.70;;;3.50;99.90;;;;;;5040672;28;20053;-69
2021/03/23 05:03:21;;;;;;;12.80;8.50;;;3.50;99.90;;;;;;5031739;28;20054;-69
2021/03/23 05:05:52;;;;;;;13.80;9.23;;;3.50;99.90;;;;;;5032782;28;20045;-69
2021/03/23 05:08:19;;;;;;;17.90;11.38;;;3.60;99.90;;;;;;5050898;28;20124;-69
2021/03/23 05:10:46;;;;;;;14.80;9.90;;;3.50;99.90;;;;;;5049962;28;20053;-69
2021/03/23 05:13:13;;;;;;;16.38;9.15;;;3.60;99.90;;;;;;5051742;28;20051;-70
2021/03/23 05:15:40;;;;;;;16.65;8.88;;;3.60;99.90;;;;;;5040583;28;20513;-69
2021/03/23 05:18:06;;;;;;;16.05;9.48;;;3.60;99.90;;;;;;5050655;28;20057;-68
2021/03/23 05:20:33;;;;;;;14.77;9.13;;;3.60;99.90;;;;;;5050296;28;20057;-70
2021/03/23 05:22:59;;;;;;;13.68;8.80;;;3.70;99.90;;;;;;5050672;28;20123;-69
2021/03/23 05:25:26;;;;;;;16.65;9.23;;;3.70;99.90;;;;;;5036003;28;20053;-70
2021/03/23 05:27:52;;;;;;;16.42;9.07;;;3.70;99.90;;;;;;5049006;28;20063;-70
2021/03/23 05:30:19;;;;;;;15.05;9.20;;;3.70;99.90;;;;;;5050554;28;20464;-70
2021/03/23 05:32:46;;;;;;;16.02;9.93;;;3.70;99.90;;;;;;5050854;28;20498;-69
2021/03/23 05:35:13;;;;;;;18.63;11.30;;;3.80;99.90;;;;;;5051870;28;20052;-70
2021/03/23 05:37:47;;;;;;;14.60;9.38;;;3.80;99.90;;;;;;5035000;28;20059;-70
2021/03/23 05:40:29;;;;;;;19.50;9.88;;;3.70;99.90;;;;;;5048226;28;20493;-70
2021/03/23 05:43:07;;;;;;;15.93;9.85;;;3.80;99.90;;;;;;5049542;28;20418;-70
2021/03/23 05:45:40;;;;;;;13.63;8.20;;;3.80;99.90;;;;;;5049631;28;20055;-69
2021/03/23 05:48:16;;;;;;;13.77;9.27;;;3.90;99.90;;;;;;5050994;28;20107;-69
2021/03/23 05:50:59;;;;;;;17.83;10.73;;;3.90;99.90;;;;;;5040249;28;20587;-70
2021/03/23 05:53:57;;;;;;;14.60;9.95;;;4.00;99.90;;;;;;5048300;28;20059;-69
2021/03/23 05:56:27;;;;;;;14.50;9.65;;;4.00;99.90;;;;;;5050989;28;20059;-70
2021/03/23 05:58:56;;;;;;;17.10;10.10;;;4.10;99.90;;;;;;5044043;28;20049;-69
2021/03/23 06:01:29;;;;;;;17.98;10.18;;;4.10;99.90;;;;;;5045333;28;20410;-69
2021/03/23 06:04:20;;;;;;;17.88;10.88;;;4.10;99.90;;;;;;5049203;28;20061;-69
2021/03/23 06:07:02;;;;;;;20.33;10.05;;;4.10;99.90;;;;;;5048414;28;20049;-69
2021/03/23 06:09:35;;;;;;;20.80;10.05;;;4.20;99.90;;;;;;5051021;28;20053;-69
2021/03/23 06:12:21;;;;;;;20.80;10.80;;;4.20;99.90;;;;;;5051821;28;20041;-69
2021/03/23 06:14:51;;;;;;;19.77;10.63;;;4.20;99.90;;;;;;5043824;28;20060;-69
2021/03/23 06:17:20;;;;;;;16.65;10.77;;;4.30;99.90;;;;;;5049368;28;20045;-70
2021/03/23 06:19:55;;;;;;;19.48;11.50;;;4.30;99.90;;;;;;5043131;28;20060;-69
2021/03/23 06:22:27;;;;;;;17.67;11.05;;;4.40;99.90;;;;;;5051126;28;20045;-69
2021/03/23 06:25:12;;;;;;;18.50;10.85;;;4.40;99.90;;;;;;5051195;28;20064;-70
2021/03/23 06:27:51;;;;;;;16.83;11.00;;;4.40;99.90;;;;;;5036246;28;20052;-70
2021/03/23 06:30:28;;;;;;;16.38;10.88;;;4.40;99.90;;;;;;5045295;28;20059;-69
2021/03/23 06:32:55;;;;;;;19.27;10.68;;;4.50;99.90;;;;;;5043886;28;20060;-68
2021/03/23 06:35:26;;;;;;;22.15;11.65;;;4.50;99.90;;;;;;5033931;28;20099;-68
2021/03/23 06:37:53;;;;;;;18.60;10.90;;;4.50;99.90;;;;;;5050929;28;20506;-69
2021/03/23 06:40:33;;;;;;;18.17;11.35;;;4.60;99.90;;;;;;5048623;28;20854;-69
2021/03/23 06:43:28;;;;;;;19.05;11.55;;;4.60;99.90;;;;;;5049122;28;20045;-69
2021/03/23 06:46:03;;;;;;;22.00;11.50;;;4.60;99.90;;;;;;5048080;28;20553;-69
2021/03/23 06:48:33;;;;;;;21.27;12.50;;;4.60;99.90;;;;;;5051244;28;20621;-69
2021/03/23 06:51:19;;;;;;;18.77;11.48;;;4.60;99.90;;;;;;5048536;28;20047;-69
2021/03/23 06:53:46;;;;;;;22.77;11.90;;;4.70;99.90;;;;;;5047013;28;20049;-68
2021/03/23 06:56:25;;;;;;;20.35;11.18;;;4.70;99.90;;;;;;5047261;28;20083;-69
2021/03/23 06:59:17;;;;;;;17.95;11.15;;;4.70;99.90;;;;;;5042422;28;20132;-69
2021/03/23 07:01:48;;;;;;;;;;;4.80;99.90;;;;;;5044471;28;20411;-68
2021/03/23 07:04:23;;;;;;;18.25;11.75;;;4.80;99.90;;;;;;5043405;28;19921;-68
2021/03/23 07:07:13;;;;;;;23.10;11.98;;;4.90;99.90;;;;;;5047779;28;20055;-70
2021/03/23 07:09:56;;;;;;;22.40;12.50;;;5.00;99.90;;;;;;5043489;28;20392;-69
2021/03/23 07:12:37;;;;;;;18.83;11.80;;;5.10;99.90;;;;;;5047535;28;20046;-69
2021/03/23 07:15:25;;;;;;;17.75;11.43;;;5.10;99.90;;;;;;5048876;28;20136;-69
2021/03/23 07:17:56;;;;;;;18.40;11.65;;;5.10;99.90;;;;;;5047075;28;20049;-69
2021/03/23 07:20:29;;;;;;;20.45;11.80;;;5.10;99.90;;;;;;5051978;28;20049;-69
2021/03/23 07:22:56;;;;;;;18.98;12.15;;;5.00;99.90;;;;;;5041503;28;20057;-69
2021/03/23 07:25:40;;;;;;;18.65;11.98;;;5.00;99.90;;;;;;5047084;28;20614;-69
2021/03/23 07:28:28;;;;;;;20.30;13.10;;;4.90;99.90;;;;;;5042317;28;20498;-69
2021/03/23 07:31:34;;;;;;;22.33;11.38;;;5.00;99.90;;;;;;5044910;28;20041;-69
2021/03/23 07:34:14;;;;;;;20.25;11.60;;;5.10;99.90;;;;;;5053757;28;20552;-69
2021/03/23 07:36:44;;;;;;;18.08;11.73;;;5.10;99.90;;;;;;5041585;28;20487;-69
2021/03/23 07:39:40;;;;;;;20.60;12.40;;;5.20;99.90;;;;;;5033257;28;20068;-69
2021/03/23 07:42:28;;;;;;;20.45;11.85;;;5.20;99.90;;;;;;5051139;28;20053;-69
2021/03/23 07:45:19;;;;;;;21.00;12.13;;;5.30;99.90;;;;;;5052338;28;20134;-69
2021/03/23 07:48:13;;;;;;;20.30;12.48;;;5.50;99.90;;;;;;5040910;28;20503;-70
2021/03/23 07:50:45;;;;;;;18.15;11.75;;;5.60;99.90;;;;;;5044935;28;20490;-69
2021/03/23 07:53:22;;;;;;;19.85;12.48;;;5.70;99.90;;;;;;5045342;28;20120;-70
2021/03/23 07:55:51;;;;;;;19.17;11.95;;;5.80;99.90;;;;;;5051952;28;20049;-71
2021/03/23 07:58:58;;;;;;;19.42;11.60;;;5.80;99.90;;;;;;5047375;28;20059;-71
2021/03/23 08:01:37;;;;;;;16.83;11.43;;;5.90;99.90;;;;;;5051424;28;20057;-70
2021/03/23 08:04:11;;;;;;;19.35;11.68;;;6.10;99.90;;;;;;5042574;28;20060;-71
2021/03/23 08:06:50;;;;;;;21.23;12.10;;;6.20;99.90;;;;;;5037201;28;20057;-70
2021/03/23 08:09:31;;;;;;;15.85;10.80;;;6.20;99.90;;;;;;5031696;28;20503;-70
2021/03/23 08:12:36;;;;;;;15.35;11.20;;;6.30;99.90;;;;;;5032715;28;20046;-70
2021/03/23 08:15:24;;;;;;;20.25;11.38;;;6.40;99.90;;;;;;5045839;28;20052;-71
2021/03/23 08:18:04;;;;;;;15.50;11.05;;;6.60;99.90;;;;;;5041777;28;20049;-71
2021/03/23 08:21:01;;;;;;;17.30;11.68;;;6.40;99.90;;;;;;5051757;28;20045;-71
2021/03/23 08:23:59;;;;;;;17.48;11.15;;;6.50;99.90;;;;;;5053346;28;20487;-70
2021/03/23 08:26:45;;;;;;;20.33;11.25;;;6.70;99.90;;;;;;5042339;28;20041;-70
2021/03/23 08:29:35;;;;;;;17.10;10.82;;;6.70;99.90;;;;;;5051231;28;20044;-71
2021/03/23 08:32:21;;;;;;;14.98;10.70;;;6.90;99.90;;;;;;5045551;28;20476;-70
2021/03/23 08:35:16;;;;;;;12.50;9.30;;;7.00;99.90;;;;;;5039862;28;20084;-70
2021/03/23 08:38:08;;;;;;;15.93;11.30;;;6.90;99.90;;;;;;5047546;28;20048;-71
2021/03/23 08:40:47;;;;;;;15.25;10.82;;;6.90;99.90;;;;;;5047344;28;20079;-71
2021/03/23 08:43:20;;;;;;;19.95;11.45;;;6.90;99.90;;;;;;5050733;28;20041;-70
2021/03/23 08:45:49;;;;;;;14.85;11.00;;;6.90;99.90;;;;;;5046591;28;20059;-70
2021/03/23 08:48:44;;;;;;;14.98;10.80;;;7.00;99.90;;;;;;5051300;28;20077;-71
2021/03/23 08:51:18;;;;;;;16.80;11.07;;;7.10;99.90;;;;;;5036383;28;20535;-71
2021/03/23 08:53:52;;;;;;;15.77;11.70;;;7.00;99.90;;;;;;5050773;28;20056;-70
2021/03/23 08:56:41;;;;;;;16.02;11.02;;;7.00;99.90;;;;;;5052248;28;20041;-71
2021/03/23 08:59:38;;;;;;;14.55;11.15;;;7.10;99.90;;;;;;5049528;28;20045;-70
2021/03/23 09:02:07;;;;;;;15.52;10.95;;;7.30;99.90;;;;;;5044291;28;20069;-70
2021/03/23 09:04:37;;;;;;;15.40;11.43;;;7.40;99.90;;;;;;5041967;28;20108;-70
2021/03/23 09:07:14;;;;;;;19.00;11.60;;;7.50;99.90;;;;;;5050642;28;20506;-70
2021/03/23 09:09:43;;;;;;;13.00;10.25;;;7.50;99.90;;;;;;5051113;28;20049;-70
2021/03/23 09:12:42;;;;;;;15.35;11.35;;;7.60;99.90;;;;;;5051647;28;20041;-70
2021/03/23 09:15:15;;;;;;;13.77;11.02;;;7.80;99.90;;;;;;5045638;28;20049;-70
2021/03/23 09:17:53;;;;;;;15.18;10.98;;;7.80;99.90;;;;;;5050891;28;20056;-71
2021/03/23 09:20:35;;;;;;;16.00;11.35;;;7.80;99.90;;;;;;5047793;28;20107;-70
2021/03/23 09:23:17;;;;;;;15.00;11.43;;;7.70;99.90;;;;;;5031965;28;20472;-71
2021/03/23 09:25:49;;;;;;;18.60;12.60;;;7.70;99.90;;;;;;5049345;28;20071;-70
2021/03/23 09:28:44;;;;;;;15.50;11.90;;;7.70;99.90;;;;;;5039016;28;20051;-70
2021/03/23 09:31:19;;;;;;;14.07;11.20;;;7.70;99.90;;;;;;5041012;28;20048;-71
2021/03/23 09:33:51;;;;;;;18.27;11.55;;;7.80;99.90;;;;;;5052127;28;20194;-71
2021/03/23 09:36:23;;;;;;;12.05;10.80;;;7.90;99.90;;;;;;5044433;28;20049;-70
2021/03/23 09:38:51;;;;;;;12.57;10.73;;;7.80;99.90;;;;;;5050865;28;20053;-70
2021/03/23 09:41:21;;;;;;;14.10;11.48;;;7.80;99.90;;;;;;5045329;28;20051;-71
2021/03/23 09:43:50;;;;;;;13.55;11.35;;;7.80;99.90;;;;;;5051190;28;20434;-71
2021/03/23 09:46:22;;;;;;;12.80;10.38;;;7.70;99.90;;;;;;5049399;28;20048;-70
2021/03/23 09:48:54;;;;;;;14.63;10.65;;;7.70;99.90;;;;;;5050009;28;20052;-69
2021/03/23 09:51:39;;;;;;;12.88;11.15;;;7.70;99.90;;;;;;5045825;28;20558;-70
2021/03/23 09:54:20;;;;;;;12.35;10.75;;;7.60;99.90;;;;;;5044024;28;20392;-70
2021/03/23 09:56:49;;;;;;;14.35;11.18;;;7.70;99.90;;;;;;5045386;28;20042;-70
2021/03/23 09:59:20;;;;;;;13.88;11.07;;;7.70;99.90;;;;;;5029825;28;20574;-70
2021/03/23 10:02:00;;;;;;;17.23;11.25;;;7.80;99.90;;;;;;5047805;28;20053;-70
2021/03/23 10:04:36;;;;;;;15.98;11.05;;;7.80;99.90;;;;;;5042541;28;20048;-70
2021/03/23 10:07:04;;;;;;;14.65;11.07;;;7.70;99.90;;;;;;5050148;28;20065;-70
2021/03/23 10:09:34;;;;;;;12.05;10.75;;;7.60;99.90;;;;;;5048930;28;20056;-70
2021/03/23 10:12:01;;;;;;;12.13;10.55;;;7.70;99.90;;;;;;5046446;28;20128;-70
2021/03/23 10:14:40;;;;;;;12.30;10.18;;;7.90;99.90;;;;;;5050226;28;20268;-71
2021/03/23 10:17:21;;;;;;;12.73;10.32;;;8.10;99.90;;;;;;5048723;28;20491;-71
2021/03/23 10:19:52;;;;;;;12.27;10.02;;;8.10;99.90;;;;;;5050451;28;20072;-71
2021/03/23 10:22:30;;;;;;;12.52;10.60;;;8.20;99.90;;;;;;5047560;28;20053;-70
2021/03/23 10:24:58;;;;;;;14.57;11.45;;;8.30;99.90;;;;;;5050607;28;20048;-70
2021/03/23 10:27:28;;;;;;;13.95;11.40;;;8.30;99.90;;;;;;5053727;28;20056;-72
2021/03/23 10:30:39;;;;;;;14.10;11.30;;;8.40;99.90;;;;;;5054339;28;20072;-70
2021/03/23 10:33:24;;;;;;;22.48;15.85;;;8.10;99.90;;;;;;5018038;28;20045;-69
2021/03/23 10:35:54;;;;;;;13.68;11.18;;;8.10;99.90;;;;;;5053713;28;20044;-70
2021/03/23 10:38:34;;;;;;;14.20;10.50;;;8.10;99.90;;;;;;5053094;28;20084;-71
2021/03/23 10:41:22;;;;;;;12.07;10.43;;;8.30;99.90;;;;;;5054431;28;20053;-71
2021/03/23 10:43:52;;;;;;;13.40;11.07;;;8.50;99.90;;;;;;5043984;28;20061;-71
2021/03/23 10:46:35;;;;;;;12.65;10.80;;;8.60;99.90;;;;;;5052922;28;20052;-72
2021/03/23 10:49:13;;;;;;;13.65;11.07;;;8.50;99.90;;;;;;5046825;28;20052;-71
2021/03/23 10:51:43;;;;;;;13.30;10.93;;;8.50;99.90;;;;;;5049105;28;20172;-71
2021/03/23 10:54:12;;;;;;;14.52;11.30;;;8.50;99.90;;;;;;5049554;28;20044;-72
2021/03/23 10:56:44;;;;;;;12.80;11.50;;;8.60;99.90;;;;;;5054561;28;20080;-71
2021/03/23 10:59:33;;;;;;;13.20;11.52;;;8.50;99.90;;;;;;5054507;28;20053;-71
2021/03/23 11:02:18;;;;;;;14.50;11.73;;;8.50;99.90;;;;;;5053293;28;20051;-72
2021/03/23 11:05:12;;;;;;;13.45;11.25;;;8.50;99.90;;;;;;5053894;28;20079;-69
2021/03/23 11:07:58;;;;;;;11.73;10.52;;;8.50;99.90;;;;;;5033256;28;20498;-70
2021/03/23 11:10:29;;;;;;;13.60;11.07;;;8.50;99.90;;;;;;5052460;28;20060;-72
2021/03/23 11:12:55;;;;;;;17.35;10.98;;;8.50;99.90;;;;;;5052349;28;20099;-70
2021/03/23 11:15:23;;;;;;;14.80;11.70;;;8.60;99.90;;;;;;5049691;28;20044;-71
2021/03/23 11:17:51;;;;;;;12.73;10.75;;;8.70;99.90;;;;;;5052584;28;20041;-70
2021/03/23 11:20:25;;;;;;;15.52;10.20;;;9.00;99.90;;;;;;5053694;28;20109;-71
2021/03/23 11:22:54;;;;;;;11.98;10.65;;;9.10;99.90;;;;;;5053413;28;20057;-72
2021/03/23 11:25:24;;;;;;;12.90;10.93;;;9.10;99.90;;;;;;5043273;28;20064;-71
2021/03/23 11:27:53;;;;;;;13.68;10.40;;;9.20;99.90;;;;;;5052553;28;20068;-70
2021/03/23 11:30:20;;;;;;;11.80;10.57;;;9.20;99.90;;;;;;5053244;28;20057;-71
2021/03/23 11:32:49;;;;;;;13.10;10.98;;;9.10;99.90;;;;;;5052124;28;20059;-71
2021/03/23 11:35:17;;;;;;;14.10;10.95;;;9.00;99.90;;;;;;5051926;28;20140;-71
2021/03/23 11:37:43;;;;;;;12.15;10.52;;;8.80;99.90;;;;;;5052282;28;20398;-70
2021/03/23 11:40:11;;;;;;;14.07;11.18;;;8.60;99.90;;;;;;5052522;28;20045;-71
2021/03/23 11:42:44;;;;;;;13.40;11.57;;;8.50;99.90;;;;;;5041930;28;20131;-71
2021/03/23 11:45:29;;;;;;;12.77;11.30;;;8.30;99.90;;;;;;5046701;28;20167;-71
2021/03/23 11:47:59;;;;;;;14.35;11.85;;;8.10;99.90;;;;;;5050652;28;20132;-70
2021/03/23 11:50:28;;;;;;;13.30;11.98;;;8.20;99.90;;;;;;5044586;28;20043;-72
2021/03/23 11:52:56;;;;;;;14.07;11.32;;;8.20;99.90;;;;;;5033837;28;20056;-69
2021/03/23 11:55:28;;;;;;;13.65;12.23;;;8.30;99.90;;;;;;5053558;28;20045;-72
2021/03/23 11:57:55;;;;;;;19.40;13.05;;;8.40;99.90;;;;;;5052165;28;20131;-71
2021/03/23 12:00:27;;;;;;;13.93;11.63;;;8.40;99.90;;;;;;5048137;28;20042;-71
2021/03/23 12:02:55;;;;;;;15.95;12.23;;;8.60;99.90;;;;;;5032872;28;20057;-71
2021/03/23 12:05:23;;;;;;;22.55;13.93;;;8.70;99.90;;;;;;5034278;28;20076;-71
2021/03/23 12:08:32;;;;;;;16.27;12.68;;;8.70;99.90;;;;;;5041862;28;20060;-71
2021/03/23 12:11:12;;;;;;;15.20;11.32;;;8.80;99.90;;;;;;5051001;28;20177;-70
2021/03/23 12:13:54;;;;;;;16.33;11.85;;;9.10;99.90;;;;;;5040897;28;20470;-70
2021/03/23 12:16:26;;;;;;;14.95;13.25;;;9.30;99.90;;;;;;5050017;28;20048;-72
2021/03/23 12:18:57;;;;;;;15.38;12.38;;;9.60;99.90;;;;;;5053409;28;20507;-70
2021/03/23 12:21:26;;;;;;;13.35;11.85;;;9.60;99.90;;;;;;5053191;28;20415;-71
2021/03/23 12:23:52;;;;;;;15.23;12.30;;;9.90;99.90;;;;;;5045543;28;20076;-72
2021/03/23 12:26:20;;;;;;;14.00;12.02;;;10.00;99.90;;;;;;5052589;28;20044;-71
2021/03/23 12:28:47;;;;;;;13.65;12.10;;;9.80;99.90;;;;;;5052604;28;20060;-71
2021/03/23 12:31:14;;;;;;;14.40;12.90;;;9.50;99.90;;;;;;5048877;28;20509;-69
2021/03/23 12:33:41;;;;;;;16.00;13.25;;;9.50;99.90;;;;;;5049885;28;20053;-70
2021/03/23 12:36:13;;;;;;;17.70;13.07;;;9.60;99.90;;;;;;5048935;28;20469;-71
2021/03/23 12:38:41;;;;;;;14.40;12.60;;;9.80;99.90;;;;;;5033147;28;20052;-71
2021/03/23 12:41:27;;;;;;;16.90;12.88;;;9.50;99.90;;;;;;5033026;28;20065;-72
2021/03/23 12:43:55;;;;;;;15.13;12.18;;;9.40;99.90;;;;;;5048377;28;20456;-69
2021/03/23 12:46:25;;;;;;;14.23;12.60;;;9.50;99.90;;;;;;5046160;28;20049;-71
2021/03/23 12:48:52;;;;;;;15.52;12.85;;;9.30;99.90;;;;;;5039481;28;20197;-70
2021/03/23 12:51:37;;;;;;;15.57;12.88;;;9.30;99.90;;;;;;5044366;28;20142;-70
2021/03/23 12:54:05;;;;;;;17.70;13.45;;;9.50;99.90;;;;;;5053520;28;20045;-70
2021/03/23 12:56:32;;;;;;;17.13;13.20;;;9.60;99.90;;;;;;5048816;28;20053;-70
2021/03/23 12:59:00;;;;;;;16.70;12.43;;;9.70;99.90;;;;;;5051940;28;20071;-69
2021/03/23 13:01:27;;;;;;;14.27;12.80;;;9.80;99.90;;;;;;5035286;28;20129;-71
2021/03/23 13:03:54;;;;;;;14.55;13.05;;;9.80;99.90;;;;;;5043157;28;20060;-70
2021/03/23 13:06:27;;;;;;;15.40;13.35;;;9.90;99.90;;;;;;5032189;28;20053;-71
2021/03/23 13:08:55;;;;;;;17.08;13.63;;;9.70;99.90;;;;;;5040428;28;20053;-71
2021/03/23 13:11:26;;;;;;;17.85;14.10;;;9.20;99.90;;;;;;5040673;28;20053;-70